Terminal Aerodrome Forecast
Issued by NWS

Home | Current Version | Previous Version | Graphics & Text | Print | Product List | Glossary On
Versions: 1 2 3 4 5 6 7 8 9 10 11 12 13 14 15 16 17
709
FTUS43 KABR 281726
TAFMBG
TAF
KMBG 281726Z 2818/2918 01009KT P6SM FEW030 SCT060 OVC070
     FM282000 06010KT P6SM OVC035
     FM290200 08006KT P6SM BKN060=

USA.gov is the U.S. government's official web portal to all federal, state and local government web resources and services.